Announcements: The temperature sensor may be failing. Working on a solution
Email Mr. Reynolds

Nearby METAR Reports

 

KMIC - Crystal, Minnesota, USA
Distance from station: S 7mi, 16km
Updated: Wed, 05/18/2022 12:53am CDT
Overcast
Overcast
 Wind from SSE
Wind: SSE 3 mph , 6 km/h
Temperature: 57°F , 14°C
Dew Point: 54°F , 12°C
Humidity: 88%
Barometer: 29.92 inHg , 1013.2 hPa
Clouds: Overcast
Visibility: 10 miles , 16 km
Cloud details: Few Clouds 4700 ft
Mostly cloudy 6000 ft
Overcast 7500 ft
2022/05/18 05:53 KMIC 180553Z AUTO 16003KT 10SM FEW047 BKN060 OVC075 14/12 A2992 RMK AO2 RAB0458E08 SLP130 P0000 60004 T01390117 10211 20139 402280067 58011
KANE - Anoka-Blaine, Minnesota, USA
Distance from station: SW 16mi, 27km
Updated: Wed, 05/18/2022 1:35am CDT
Light drizzle, Overcast
Light drizzle, Overcast
 Wind from calm
Wind: Calm
Temperature: 57°F , 14°C
Dew Point: 55°F , 13°C
Humidity: 94%
Barometer: 29.90 inHg , 1012.5 hPa
Summary: Light Drizzle
Clouds: Overcast
Visibility: 10 miles , 16 km
Cloud details: Overcast 6000 ft
2022/05/18 06:35 KANE 180635Z AUTO 00000KT 10SM -DZ OVC060 14/13 A2990 RMK AO2 P0001
KFCM - Flying Cloud-Eden Prairie, Minnesota, USA
Distance from station: NE 17mi, 28km
Updated: Wed, 05/18/2022 12:53am CDT
Overcast
Overcast
 Wind from E
Wind: E 5 mph , 7 km/h
Temperature: 55°F , 13°C
Dew Point: 54°F , 12°C
Humidity: 94%
Barometer: 29.92 inHg , 1013.2 hPa
Clouds: Overcast
Visibility: 10 miles , 16 km
Cloud details: Overcast 7500 ft
2022/05/18 05:53 KFCM 180553Z AUTO 10004KT 10SM OVC075 13/12 A2992 RMK AO2 SLP131 60014 T01330117 10189 20133 402220106 56010
 
KMSP - Minneapolis-St. Paul, Minnesota, USA
Distance from station: NW 16mi, 27km
Updated: Wed, 05/18/2022 12:53am CDT
Overcast
Overcast
 Wind from calm
Wind: Calm
Temperature: 55°F , 13°C
Dew Point: 54°F , 12°C
Humidity: 94%
Barometer: 29.94 inHg , 1013.9 hPa
Clouds: Overcast
Visibility: 10 miles , 16 km
Cloud details: Overcast 8500 ft
2022/05/18 05:53 KMSP 180553Z 00000KT 10SM OVC085 13/12 A2994 RMK AO2 SLP136 60008 T01330117 10206 20133 402220106 58009
KRST - Rochester, Minnesota, USA
Distance from station: NW 99mi, 159km
Updated: Wed, 05/18/2022 12:54am CDT
Light rain, Overcast
Light rain, Overcast
 Wind from SSE
Wind: SSE 9 mph , 15 km/h
Temperature: 54°F , 12°C
Dew Point: 50°F , 10°C
Humidity: 88%
Barometer: 29.93 inHg , 1013.5 hPa
Summary: Light rain
Clouds: Overcast
Visibility: 7 miles , 11 km
Cloud details: Overcast 8500 ft
2022/05/18 05:54 KRST 180554Z AUTO 15008KT 7SM -RA OVC085 12/10 A2993 RMK AO2 SLP137 P0007 60053 T01170100 10144 20117 401720100 58011 $
KSGS - Fleming/St Paul, Minnesota, USA
Distance from station: W 23mi, 37km
Updated: Wed, 05/18/2022 1:35am CDT
Overcast
Overcast
 Wind from calm
Wind: Calm
Temperature: 57°F , 14°C
Dew Point: 54°F , 12°C
Humidity: 88%
Barometer: 29.90 inHg , 1012.5 hPa
Clouds: Overcast
Visibility: 10 miles , 16 km
Cloud details: Partly cloudy 7000 ft
Overcast 8000 ft
2022/05/18 06:35 KSGS 180635Z AUTO 00000KT 10SM SCT070 OVC080 14/12 A2990 RMK AO2 T01350121
 
KDLH - Duluth, Minnesota, USA
Distance from station: SSW 164mi, 265km
Updated: Wed, 05/18/2022 12:55am CDT
Partly cloudy
Partly cloudy
 Wind from E
Wind: E 7 mph , 11 km/h
Temperature: 43°F , 6°C
Wind Chill: 39°F , 4°C
Dew Point: 30°F , -1°C
Humidity: 61%
Barometer: 29.97 inHg , 1014.9 hPa
Clouds: Partly cloudy
Visibility: 10 miles , 16 km
Cloud details: Partly cloudy 12000 ft
2022/05/18 05:55 KDLH 180555Z 09006KT 10SM SCT120 06/M01 A2997 RMK AO2 SLP157 T00611011 10117 20061 401500044 58007
KBRD - Brainard, Minnesota, USA
Distance from station: SSE 127mi, 25km
Updated: Wed, 05/18/2022 12:53am CDT
Mostly cloudy
Mostly cloudy
 Wind from calm
Wind: Calm
Temperature: 57°F , 14°C
Dew Point: 39°F , 4°C
Humidity: 51%
Barometer: 29.93 inHg , 1013.5 hPa
Clouds: Mostly cloudy
Visibility: 10 miles , 16 km
Cloud details: Mostly cloudy 7500 ft
Mostly cloudy 9000 ft
2022/05/18 05:53 KBRD 180553Z AUTO 00000KT 10SM BKN075 BKN090 14/04 A2993 RMK AO2 SLP135 60000 T01390039 10189 20139 402000050 58002 TSNO $